sensor_id;sensor_type;location;lat;lon;timestamp;P1;durP1;ratioP1;P2;durP2;ratioP2
53389;SDS011;39288;42.970;1.524;2022-12-18T00:00:43;5.30;;;3.03;;
53389;SDS011;39288;42.970;1.524;2022-12-18T00:01:44;6.15;;;3.85;;
53389;SDS011;39288;42.970;1.524;2022-12-18T00:02:44;5.43;;;2.77;;
53389;SDS011;39288;42.970;1.524;2022-12-18T00:03:45;3.60;;;2.20;;
53389;SDS011;39288;42.970;1.524;2022-12-18T00:04:46;5.40;;;1.58;;
53389;SDS011;39288;42.970;1.524;2022-12-18T00:05:47;2.10;;;1.70;;
53389;SDS011;39288;42.970;1.524;2022-12-18T00:06:49;2.75;;;1.70;;
53389;SDS011;39288;42.970;1.524;2022-12-18T00:07:49;3.30;;;1.83;;
53389;SDS011;39288;42.970;1.524;2022-12-18T00:08:50;2.57;;;1.63;;
53389;SDS011;39288;42.970;1.524;2022-12-18T00:09:51;8.33;;;4.80;;
53389;SDS011;39288;42.970;1.524;2022-12-18T00:10:51;28.07;;;13.77;;
53389;SDS011;39288;42.970;1.524;2022-12-18T00:11:52;15.93;;;10.10;;
53389;SDS011;39288;42.970;1.524;2022-12-18T00:12:52;7.53;;;4.97;;
53389;SDS011;39288;42.970;1.524;2022-12-18T00:13:53;6.20;;;2.50;;
53389;SDS011;39288;42.970;1.524;2022-12-18T00:14:55;5.57;;;2.33;;
53389;SDS011;39288;42.970;1.524;2022-12-18T00:16:00;3.63;;;2.17;;
53389;SDS011;39288;42.970;1.524;2022-12-18T00:17:02;3.10;;;2.00;;
53389;SDS011;39288;42.970;1.524;2022-12-18T00:18:02;5.87;;;1.83;;
53389;SDS011;39288;42.970;1.524;2022-12-18T00:19:03;2.70;;;1.70;;
53389;SDS011;39288;42.970;1.524;2022-12-18T00:20:04;2.03;;;1.50;;
53389;SDS011;39288;42.970;1.524;2022-12-18T00:21:06;2.03;;;1.47;;
53389;SDS011;39288;42.970;1.524;2022-12-18T00:22:07;4.03;;;2.20;;
53389;SDS011;39288;42.970;1.524;2022-12-18T00:23:08;5.47;;;1.70;;
53389;SDS011;39288;42.970;1.524;2022-12-18T00:24:09;2.27;;;1.60;;
53389;SDS011;39288;42.970;1.524;2022-12-18T00:25:10;2.30;;;1.30;;
53389;SDS011;39288;42.970;1.524;2022-12-18T00:26:11;1.87;;;1.50;;
53389;SDS011;39288;42.970;1.524;2022-12-18T00:27:13;3.22;;;1.92;;
53389;SDS011;39288;42.970;1.524;2022-12-18T00:28:13;3.30;;;1.90;;
53389;SDS011;39288;42.970;1.524;2022-12-18T00:29:14;2.77;;;1.40;;
53389;SDS011;39288;42.970;1.524;2022-12-18T00:30:14;1.97;;;1.47;;
53389;SDS011;39288;42.970;1.524;2022-12-18T00:31:16;3.70;;;1.60;;
53389;SDS011;39288;42.970;1.524;2022-12-18T00:32:17;2.22;;;1.90;;
53389;SDS011;39288;42.970;1.524;2022-12-18T00:33:18;2.40;;;1.67;;
53389;SDS011;39288;42.970;1.524;2022-12-18T00:34:18;2.37;;;1.60;;
53389;SDS011;39288;42.970;1.524;2022-12-18T00:35:19;2.80;;;1.70;;
53389;SDS011;39288;42.970;1.524;2022-12-18T00:36:21;3.03;;;1.95;;
53389;SDS011;39288;42.970;1.524;2022-12-18T00:37:23;2.58;;;1.75;;
53389;SDS011;39288;42.970;1.524;2022-12-18T00:38:24;3.97;;;2.40;;
53389;SDS011;39288;42.970;1.524;2022-12-18T00:39:24;11.07;;;7.87;;
53389;SDS011;39288;42.970;1.524;2022-12-18T00:40:25;10.57;;;5.23;;
53389;SDS011;39288;42.970;1.524;2022-12-18T00:41:25;4.47;;;2.23;;
53389;SDS011;39288;42.970;1.524;2022-12-18T00:42:45;4.35;;;2.30;;
53389;SDS011;39288;42.970;1.524;2022-12-18T00:43:58;3.10;;;1.60;;
53389;SDS011;39288;42.970;1.524;2022-12-18T00:44:58;2.30;;;1.63;;
53389;SDS011;39288;42.970;1.524;2022-12-18T00:45:59;2.20;;;1.80;;
53389;SDS011;39288;42.970;1.524;2022-12-18T00:46:59;2.27;;;1.60;;
53389;SDS011;39288;42.970;1.524;2022-12-18T00:48:00;1.57;;;1.40;;
53389;SDS011;39288;42.970;1.524;2022-12-18T00:49:00;2.63;;;1.30;;
53389;SDS011;39288;42.970;1.524;2022-12-18T00:50:01;5.03;;;1.80;;
53389;SDS011;39288;42.970;1.524;2022-12-18T00:51:02;3.13;;;1.40;;
53389;SDS011;39288;42.970;1.524;2022-12-18T00:52:02;3.17;;;1.60;;
53389;SDS011;39288;42.970;1.524;2022-12-18T00:53:03;1.20;;;1.10;;
53389;SDS011;39288;42.970;1.524;2022-12-18T00:54:03;2.33;;;1.60;;
53389;SDS011;39288;42.970;1.524;2022-12-18T00:55:04;2.07;;;1.20;;
53389;SDS011;39288;42.970;1.524;2022-12-18T00:56:05;2.70;;;1.90;;
53389;SDS011;39288;42.970;1.524;2022-12-18T00:57:05;1.70;;;1.50;;
53389;SDS011;39288;42.970;1.524;2022-12-18T00:58:06;1.57;;;1.23;;
53389;SDS011;39288;42.970;1.524;2022-12-18T00:59:08;1.92;;;1.33;;
53389;SDS011;39288;42.970;1.524;2022-12-18T01:00:10;1.80;;;1.40;;
53389;SDS011;39288;42.970;1.524;2022-12-18T01:01:12;4.05;;;2.10;;
53389;SDS011;39288;42.970;1.524;2022-12-18T01:02:13;2.93;;;1.70;;
53389;SDS011;39288;42.970;1.524;2022-12-18T01:03:16;2.80;;;1.50;;
53389;SDS011;39288;42.970;1.524;2022-12-18T01:04:17;5.07;;;3.33;;
53389;SDS011;39288;42.970;1.524;2022-12-18T01:05:17;6.20;;;4.33;;
53389;SDS011;39288;42.970;1.524;2022-12-18T01:06:18;8.47;;;5.87;;
53389;SDS011;39288;42.970;1.524;2022-12-18T01:07:18;9.97;;;7.03;;
53389;SDS011;39288;42.970;1.524;2022-12-18T01:08:19;8.67;;;6.90;;
53389;SDS011;39288;42.970;1.524;2022-12-18T01:09:19;8.93;;;6.93;;
53389;SDS011;39288;42.970;1.524;2022-12-18T01:10:20;9.07;;;6.00;;
53389;SDS011;39288;42.970;1.524;2022-12-18T01:11:20;3.73;;;2.33;;
53389;SDS011;39288;42.970;1.524;2022-12-18T01:12:22;2.80;;;2.17;;
53389;SDS011;39288;42.970;1.524;2022-12-18T01:13:22;4.23;;;2.90;;
53389;SDS011;39288;42.970;1.524;2022-12-18T01:14:23;6.83;;;3.47;;
53389;SDS011;39288;42.970;1.524;2022-12-18T01:15:23;2.70;;;2.30;;
53389;SDS011;39288;42.970;1.524;2022-12-18T01:16:23;5.77;;;2.73;;
53389;SDS011;39288;42.970;1.524;2022-12-18T01:17:24;4.13;;;1.60;;
53389;SDS011;39288;42.970;1.524;2022-12-18T01:18:24;2.73;;;1.57;;
53389;SDS011;39288;42.970;1.524;2022-12-18T01:19:25;2.00;;;1.53;;
53389;SDS011;39288;42.970;1.524;2022-12-18T01:20:25;2.53;;;1.50;;
53389;SDS011;39288;42.970;1.524;2022-12-18T01:21:26;2.27;;;1.60;;
53389;SDS011;39288;42.970;1.524;2022-12-18T01:22:26;2.37;;;1.40;;
53389;SDS011;39288;42.970;1.524;2022-12-18T01:23:27;3.28;;;1.73;;
53389;SDS011;39288;42.970;1.524;2022-12-18T01:24:27;2.50;;;1.50;;
53389;SDS011;39288;42.970;1.524;2022-12-18T01:25:28;2.50;;;1.50;;
53389;SDS011;39288;42.970;1.524;2022-12-18T01:26:28;2.30;;;1.60;;
53389;SDS011;39288;42.970;1.524;2022-12-18T01:27:29;4.23;;;1.60;;
53389;SDS011;39288;42.970;1.524;2022-12-18T01:28:30;3.10;;;1.57;;
53389;SDS011;39288;42.970;1.524;2022-12-18T01:29:30;5.20;;;1.50;;
53389;SDS011;39288;42.970;1.524;2022-12-18T01:30:31;2.37;;;1.27;;
53389;SDS011;39288;42.970;1.524;2022-12-18T01:31:32;2.10;;;1.20;;
53389;SDS011;39288;42.970;1.524;2022-12-18T01:32:33;5.25;;;1.13;;
53389;SDS011;39288;42.970;1.524;2022-12-18T01:33:33;2.60;;;1.30;;
53389;SDS011;39288;42.970;1.524;2022-12-18T01:34:37;1.80;;;1.30;;
53389;SDS011;39288;42.970;1.524;2022-12-18T01:35:41;2.03;;;1.30;;
53389;SDS011;39288;42.970;1.524;2022-12-18T01:36:42;3.13;;;1.30;;
53389;SDS011;39288;42.970;1.524;2022-12-18T01:37:43;2.33;;;1.57;;
53389;SDS011;39288;42.970;1.524;2022-12-18T01:38:43;2.57;;;1.53;;
53389;SDS011;39288;42.970;1.524;2022-12-18T01:39:44;2.17;;;1.50;;
53389;SDS011;39288;42.970;1.524;2022-12-18T01:40:45;3.50;;;1.40;;
53389;SDS011;39288;42.970;1.524;2022-12-18T01:41:45;3.63;;;1.40;;
53389;SDS011;39288;42.970;1.524;2022-12-18T01:43:01;2.33;;;1.35;;
53389;SDS011;39288;42.970;1.524;2022-12-18T01:44:46;5.33;;;1.63;;
53389;SDS011;39288;42.970;1.524;2022-12-18T01:45:41;2.10;;;1.25;;
53389;SDS011;39288;42.970;1.524;2022-12-18T01:46:41;2.60;;;1.53;;
53389;SDS011;39288;42.970;1.524;2022-12-18T01:47:46;6.67;;;1.50;;
53389;SDS011;39288;42.970;1.524;2022-12-18T01:48:53;2.85;;;1.58;;
53389;SDS011;39288;42.970;1.524;2022-12-18T01:49:57;2.53;;;1.40;;
53389;SDS011;39288;42.970;1.524;2022-12-18T01:50:59;2.50;;;1.42;;
53389;SDS011;39288;42.970;1.524;2022-12-18T01:52:00;3.03;;;1.40;;
53389;SDS011;39288;42.970;1.524;2022-12-18T01:54:01;3.67;;;1.37;;
53389;SDS011;39288;42.970;1.524;2022-12-18T01:55:02;2.55;;;1.70;;
53389;SDS011;39288;42.970;1.524;2022-12-18T01:56:04;4.38;;;1.50;;
53389;SDS011;39288;42.970;1.524;2022-12-18T01:57:04;3.40;;;1.23;;
53389;SDS011;39288;42.970;1.524;2022-12-18T01:58:05;2.00;;;1.40;;
53389;SDS011;39288;42.970;1.524;2022-12-18T01:59:05;6.57;;;1.70;;
53389;SDS011;39288;42.970;1.524;2022-12-18T02:00:11;4.18;;;1.40;;
53389;SDS011;39288;42.970;1.524;2022-12-18T02:01:13;2.33;;;1.40;;
53389;SDS011;39288;42.970;1.524;2022-12-18T02:02:14;3.47;;;1.40;;
53389;SDS011;39288;42.970;1.524;2022-12-18T02:04:23;2.00;;;1.20;;
53389;SDS011;39288;42.970;1.524;2022-12-18T02:06:54;3.20;;;1.33;;
53389;SDS011;39288;42.970;1.524;2022-12-18T02:09:17;3.33;;;1.77;;
53389;SDS011;39288;42.970;1.524;2022-12-18T02:10:27;8.23;;;1.30;;
53389;SDS011;39288;42.970;1.524;2022-12-18T02:12:45;2.67;;;1.08;;
53389;SDS011;39288;42.970;1.524;2022-12-18T02:14:14;3.30;;;1.40;;
53389;SDS011;39288;42.970;1.524;2022-12-18T02:15:15;3.88;;;1.45;;
53389;SDS011;39288;42.970;1.524;2022-12-18T02:17:31;3.35;;;1.60;;
53389;SDS011;39288;42.970;1.524;2022-12-18T02:18:37;4.90;;;1.70;;
53389;SDS011;39288;42.970;1.524;2022-12-18T02:21:02;2.53;;;1.60;;
53389;SDS011;39288;42.970;1.524;2022-12-18T02:22:17;2.15;;;1.65;;
53389;SDS011;39288;42.970;1.524;2022-12-18T02:27:22;2.45;;;1.50;;
53389;SDS011;39288;42.970;1.524;2022-12-18T02:28:23;1.53;;;1.13;;
53389;SDS011;39288;42.970;1.524;2022-12-18T02:30:48;3.03;;;1.52;;
53389;SDS011;39288;42.970;1.524;2022-12-18T02:31:52;4.18;;;1.90;;
53389;SDS011;39288;42.970;1.524;2022-12-18T02:32:55;2.47;;;1.65;;
53389;SDS011;39288;42.970;1.524;2022-12-18T02:33:56;2.40;;;1.65;;
53389;SDS011;39288;42.970;1.524;2022-12-18T02:35:00;3.58;;;1.50;;
53389;SDS011;39288;42.970;1.524;2022-12-18T02:36:03;3.63;;;1.40;;
53389;SDS011;39288;42.970;1.524;2022-12-18T02:37:05;1.63;;;1.10;;
53389;SDS011;39288;42.970;1.524;2022-12-18T02:38:08;2.38;;;1.73;;
53389;SDS011;39288;42.970;1.524;2022-12-18T02:39:10;4.13;;;1.40;;
53389;SDS011;39288;42.970;1.524;2022-12-18T02:40:11;1.95;;;1.30;;
53389;SDS011;39288;42.970;1.524;2022-12-18T02:41:14;2.60;;;1.45;;
53389;SDS011;39288;42.970;1.524;2022-12-18T02:43:16;2.25;;;1.30;;
53389;SDS011;39288;42.970;1.524;2022-12-18T02:44:16;2.67;;;1.30;;
53389;SDS011;39288;42.970;1.524;2022-12-18T02:45:17;2.80;;;1.40;;
53389;SDS011;39288;42.970;1.524;2022-12-18T02:46:29;3.10;;;1.40;;
53389;SDS011;39288;42.970;1.524;2022-12-18T02:47:34;2.15;;;1.40;;
53389;SDS011;39288;42.970;1.524;2022-12-18T02:48:39;3.75;;;1.30;;
53389;SDS011;39288;42.970;1.524;2022-12-18T02:50:57;3.90;;;1.45;;
53389;SDS011;39288;42.970;1.524;2022-12-18T02:53:39;5.55;;;1.40;;
53389;SDS011;39288;42.970;1.524;2022-12-18T02:54:49;1.80;;;1.33;;
53389;SDS011;39288;42.970;1.524;2022-12-18T02:56:01;2.65;;;1.60;;
53389;SDS011;39288;42.970;1.524;2022-12-18T02:57:18;3.75;;;1.38;;
53389;SDS011;39288;42.970;1.524;2022-12-18T03:00:10;2.05;;;1.40;;
53389;SDS011;39288;42.970;1.524;2022-12-18T03:01:16;1.95;;;1.23;;
53389;SDS011;39288;42.970;1.524;2022-12-18T03:03:41;3.80;;;1.10;;
53389;SDS011;39288;42.970;1.524;2022-12-18T03:04:50;2.15;;;1.30;;
53389;SDS011;39288;42.970;1.524;2022-12-18T03:06:01;2.75;;;1.40;;
53389;SDS011;39288;42.970;1.524;2022-12-18T03:07:08;2.55;;;1.42;;
53389;SDS011;39288;42.970;1.524;2022-12-18T03:08:18;2.00;;;1.30;;
53389;SDS011;39288;42.970;1.524;2022-12-18T03:09:24;2.25;;;1.20;;
53389;SDS011;39288;42.970;1.524;2022-12-18T03:10:33;2.00;;;1.40;;
53389;SDS011;39288;42.970;1.524;2022-12-18T03:11:37;4.18;;;1.50;;
53389;SDS011;39288;42.970;1.524;2022-12-18T03:13:00;2.35;;;1.25;;
53389;SDS011;39288;42.970;1.524;2022-12-18T03:14:06;2.15;;;1.45;;
53389;SDS011;39288;42.970;1.524;2022-12-18T03:15:09;3.70;;;1.58;;
53389;SDS011;39288;42.970;1.524;2022-12-18T03:16:22;5.13;;;2.38;;
53389;SDS011;39288;42.970;1.524;2022-12-18T03:17:25;2.53;;;1.38;;
53389;SDS011;39288;42.970;1.524;2022-12-18T03:18:30;3.00;;;1.33;;
53389;SDS011;39288;42.970;1.524;2022-12-18T03:19:35;2.10;;;1.30;;
53389;SDS011;39288;42.970;1.524;2022-12-18T03:20:37;3.53;;;1.50;;
53389;SDS011;39288;42.970;1.524;2022-12-18T03:21:45;2.63;;;1.50;;
53389;SDS011;39288;42.970;1.524;2022-12-18T03:22:49;2.65;;;1.42;;
53389;SDS011;39288;42.970;1.524;2022-12-18T03:23:52;2.35;;;1.55;;
53389;SDS011;39288;42.970;1.524;2022-12-18T03:24:53;2.60;;;1.50;;
53389;SDS011;39288;42.970;1.524;2022-12-18T03:25:55;4.03;;;1.23;;
53389;SDS011;39288;42.970;1.524;2022-12-18T03:26:58;2.50;;;1.30;;
53389;SDS011;39288;42.970;1.524;2022-12-18T03:28:01;3.40;;;1.10;;
53389;SDS011;39288;42.970;1.524;2022-12-18T03:29:05;3.08;;;1.70;;
53389;SDS011;39288;42.970;1.524;2022-12-18T03:30:08;6.05;;;1.83;;
53389;SDS011;39288;42.970;1.524;2022-12-18T03:31:12;3.60;;;1.10;;
53389;SDS011;39288;42.970;1.524;2022-12-18T03:32:21;4.85;;;1.80;;
53389;SDS011;39288;42.970;1.524;2022-12-18T03:33:25;2.13;;;1.23;;
53389;SDS011;39288;42.970;1.524;2022-12-18T03:34:29;2.70;;;1.77;;
53389;SDS011;39288;42.970;1.524;2022-12-18T03:35:37;5.22;;;1.40;;
53389;SDS011;39288;42.970;1.524;2022-12-18T03:36:40;2.20;;;1.17;;
53389;SDS011;39288;42.970;1.524;2022-12-18T03:37:40;3.70;;;1.30;;
53389;SDS011;39288;42.970;1.524;2022-12-18T03:38:41;3.38;;;1.42;;
53389;SDS011;39288;42.970;1.524;2022-12-18T03:39:41;4.63;;;1.50;;
53389;SDS011;39288;42.970;1.524;2022-12-18T03:44:36;5.00;;;1.40;;
53389;SDS011;39288;42.970;1.524;2022-12-18T03:45:40;1.52;;;1.10;;
53389;SDS011;39288;42.970;1.524;2022-12-18T03:47:51;2.73;;;1.70;;
53389;SDS011;39288;42.970;1.524;2022-12-18T03:49:09;1.95;;;1.40;;
53389;SDS011;39288;42.970;1.524;2022-12-18T03:50:15;3.85;;;1.50;;
53389;SDS011;39288;42.970;1.524;2022-12-18T03:51:20;2.65;;;1.33;;
53389;SDS011;39288;42.970;1.524;2022-12-18T03:55:04;3.17;;;1.95;;
53389;SDS011;39288;42.970;1.524;2022-12-18T03:56:05;2.45;;;1.63;;
53389;SDS011;39288;42.970;1.524;2022-12-18T03:57:08;4.15;;;1.90;;
53389;SDS011;39288;42.970;1.524;2022-12-18T03:58:12;5.43;;;1.88;;
53389;SDS011;39288;42.970;1.524;2022-12-18T03:59:17;5.93;;;1.65;;
53389;SDS011;39288;42.970;1.524;2022-12-18T04:00:19;4.07;;;1.50;;
53389;SDS011;39288;42.970;1.524;2022-12-18T04:01:20;3.13;;;1.40;;
53389;SDS011;39288;42.970;1.524;2022-12-18T04:02:25;3.50;;;1.45;;
53389;SDS011;39288;42.970;1.524;2022-12-18T04:03:26;3.87;;;1.60;;
53389;SDS011;39288;42.970;1.524;2022-12-18T04:04:28;3.85;;;1.58;;
53389;SDS011;39288;42.970;1.524;2022-12-18T04:05:29;5.73;;;2.40;;
53389;SDS011;39288;42.970;1.524;2022-12-18T04:06:30;4.32;;;2.25;;
53389;SDS011;39288;42.970;1.524;2022-12-18T04:07:31;5.93;;;1.67;;
53389;SDS011;39288;42.970;1.524;2022-12-18T04:08:32;2.22;;;1.30;;
53389;SDS011;39288;42.970;1.524;2022-12-18T04:09:34;3.83;;;1.70;;
53389;SDS011;39288;42.970;1.524;2022-12-18T04:10:36;4.38;;;2.08;;
53389;SDS011;39288;42.970;1.524;2022-12-18T04:11:36;5.70;;;2.67;;
53389;SDS011;39288;42.970;1.524;2022-12-18T04:12:37;2.70;;;1.30;;
53389;SDS011;39288;42.970;1.524;2022-12-18T04:13:38;2.70;;;1.50;;
53389;SDS011;39288;42.970;1.524;2022-12-18T04:14:39;2.35;;;1.45;;
53389;SDS011;39288;42.970;1.524;2022-12-18T04:15:39;1.70;;;1.30;;
53389;SDS011;39288;42.970;1.524;2022-12-18T04:16:40;2.97;;;1.33;;
53389;SDS011;39288;42.970;1.524;2022-12-18T04:17:43;2.03;;;1.10;;
53389;SDS011;39288;42.970;1.524;2022-12-18T04:18:47;1.35;;;1.02;;
53389;SDS011;39288;42.970;1.524;2022-12-18T04:19:48;1.70;;;1.20;;
53389;SDS011;39288;42.970;1.524;2022-12-18T04:20:48;2.00;;;1.00;;
53389;SDS011;39288;42.970;1.524;2022-12-18T04:21:49;2.90;;;1.20;;
53389;SDS011;39288;42.970;1.524;2022-12-18T04:22:49;2.27;;;1.20;;
53389;SDS011;39288;42.970;1.524;2022-12-18T04:23:49;2.83;;;1.50;;
53389;SDS011;39288;42.970;1.524;2022-12-18T04:24:50;2.67;;;1.20;;
53389;SDS011;39288;42.970;1.524;2022-12-18T04:25:50;3.50;;;1.20;;
53389;SDS011;39288;42.970;1.524;2022-12-18T04:26:51;1.60;;;1.00;;
53389;SDS011;39288;42.970;1.524;2022-12-18T04:27:51;1.23;;;1.00;;
53389;SDS011;39288;42.970;1.524;2022-12-18T04:28:52;6.20;;;1.43;;
53389;SDS011;39288;42.970;1.524;2022-12-18T04:29:52;1.83;;;1.40;;
53389;SDS011;39288;42.970;1.524;2022-12-18T04:30:53;2.37;;;1.27;;
53389;SDS011;39288;42.970;1.524;2022-12-18T04:31:53;1.67;;;1.07;;
53389;SDS011;39288;42.970;1.524;2022-12-18T04:32:54;1.70;;;1.20;;
53389;SDS011;39288;42.970;1.524;2022-12-18T04:33:54;1.97;;;1.40;;
53389;SDS011;39288;42.970;1.524;2022-12-18T04:34:55;2.13;;;1.23;;
53389;SDS011;39288;42.970;1.524;2022-12-18T04:35:55;2.43;;;1.37;;
53389;SDS011;39288;42.970;1.524;2022-12-18T04:36:56;3.83;;;1.30;;
53389;SDS011;39288;42.970;1.524;2022-12-18T04:37:56;5.13;;;1.30;;
53389;SDS011;39288;42.970;1.524;2022-12-18T04:38:59;2.00;;;1.10;;
53389;SDS011;39288;42.970;1.524;2022-12-18T04:40:00;1.50;;;1.15;;
53389;SDS011;39288;42.970;1.524;2022-12-18T04:41:00;2.07;;;1.20;;
53389;SDS011;39288;42.970;1.524;2022-12-18T04:42:01;4.60;;;1.23;;
53389;SDS011;39288;42.970;1.524;2022-12-18T04:43:02;2.72;;;1.80;;
53389;SDS011;39288;42.970;1.524;2022-12-18T04:44:02;2.50;;;1.50;;
53389;SDS011;39288;42.970;1.524;2022-12-18T04:45:04;3.58;;;1.30;;
53389;SDS011;39288;42.970;1.524;2022-12-18T04:46:05;2.53;;;1.30;;
53389;SDS011;39288;42.970;1.524;2022-12-18T04:47:06;7.07;;;1.85;;
53389;SDS011;39288;42.970;1.524;2022-12-18T04:48:07;6.97;;;1.97;;
53389;SDS011;39288;42.970;1.524;2022-12-18T04:49:11;5.10;;;1.38;;
53389;SDS011;39288;42.970;1.524;2022-12-18T04:50:12;1.95;;;1.40;;
53389;SDS011;39288;42.970;1.524;2022-12-18T04:51:12;1.97;;;1.20;;
53389;SDS011;39288;42.970;1.524;2022-12-18T04:52:13;5.67;;;3.27;;
53389;SDS011;39288;42.970;1.524;2022-12-18T04:53:14;7.40;;;3.30;;
53389;SDS011;39288;42.970;1.524;2022-12-18T04:54:14;4.23;;;2.40;;
53389;SDS011;39288;42.970;1.524;2022-12-18T04:55:15;4.47;;;2.57;;
53389;SDS011;39288;42.970;1.524;2022-12-18T04:56:15;3.53;;;2.57;;
53389;SDS011;39288;42.970;1.524;2022-12-18T04:57:16;2.93;;;2.47;;
53389;SDS011;39288;42.970;1.524;2022-12-18T04:59:18;5.70;;;1.65;;
53389;SDS011;39288;42.970;1.524;2022-12-18T05:00:18;3.03;;;1.87;;
53389;SDS011;39288;42.970;1.524;2022-12-18T05:01:19;1.90;;;1.17;;
53389;SDS011;39288;42.970;1.524;2022-12-18T05:02:20;10.05;;;1.23;;
53389;SDS011;39288;42.970;1.524;2022-12-18T05:03:20;2.10;;;1.40;;
53389;SDS011;39288;42.970;1.524;2022-12-18T05:04:21;3.25;;;1.17;;
53389;SDS011;39288;42.970;1.524;2022-12-18T05:05:21;4.87;;;1.70;;
53389;SDS011;39288;42.970;1.524;2022-12-18T05:06:22;2.67;;;1.53;;
53389;SDS011;39288;42.970;1.524;2022-12-18T05:07:22;2.93;;;1.27;;
53389;SDS011;39288;42.970;1.524;2022-12-18T05:08:23;2.47;;;1.50;;
53389;SDS011;39288;42.970;1.524;2022-12-18T05:09:23;3.20;;;1.33;;
53389;SDS011;39288;42.970;1.524;2022-12-18T05:10:24;4.73;;;1.93;;
53389;SDS011;39288;42.970;1.524;2022-12-18T05:11:24;2.83;;;1.40;;
53389;SDS011;39288;42.970;1.524;2022-12-18T05:12:24;2.47;;;1.70;;
53389;SDS011;39288;42.970;1.524;2022-12-18T05:13:25;5.10;;;1.40;;
53389;SDS011;39288;42.970;1.524;2022-12-18T05:14:26;2.03;;;1.52;;
53389;SDS011;39288;42.970;1.524;2022-12-18T05:15:29;2.65;;;1.48;;
53389;SDS011;39288;42.970;1.524;2022-12-18T05:16:31;19.17;;;13.75;;
53389;SDS011;39288;42.970;1.524;2022-12-18T05:17:31;8.53;;;5.27;;
53389;SDS011;39288;42.970;1.524;2022-12-18T05:18:32;6.43;;;3.57;;
53389;SDS011;39288;42.970;1.524;2022-12-18T05:19:32;5.70;;;3.43;;
53389;SDS011;39288;42.970;1.524;2022-12-18T05:20:33;4.27;;;3.37;;
53389;SDS011;39288;42.970;1.524;2022-12-18T05:21:33;4.93;;;3.80;;
53389;SDS011;39288;42.970;1.524;2022-12-18T05:22:34;6.97;;;4.30;;
53389;SDS011;39288;42.970;1.524;2022-12-18T05:23:34;6.13;;;3.40;;
53389;SDS011;39288;42.970;1.524;2022-12-18T05:24:35;4.82;;;2.10;;
53389;SDS011;39288;42.970;1.524;2022-12-18T05:25:36;6.00;;;2.43;;
53389;SDS011;39288;42.970;1.524;2022-12-18T05:26:36;3.17;;;2.00;;
53389;SDS011;39288;42.970;1.524;2022-12-18T05:27:37;2.23;;;1.67;;
53389;SDS011;39288;42.970;1.524;2022-12-18T05:28:37;6.23;;;1.80;;
53389;SDS011;39288;42.970;1.524;2022-12-18T05:29:38;2.77;;;1.83;;
53389;SDS011;39288;42.970;1.524;2022-12-18T05:30:38;4.67;;;2.70;;
53389;SDS011;39288;42.970;1.524;2022-12-18T05:31:47;3.63;;;2.38;;
53389;SDS011;39288;42.970;1.524;2022-12-18T05:32:48;3.73;;;1.90;;
53389;SDS011;39288;42.970;1.524;2022-12-18T05:33:48;3.00;;;2.00;;
53389;SDS011;39288;42.970;1.524;2022-12-18T05:34:49;3.20;;;1.40;;
53389;SDS011;39288;42.970;1.524;2022-12-18T05:35:50;4.03;;;1.60;;
53389;SDS011;39288;42.970;1.524;2022-12-18T05:36:54;2.20;;;1.50;;
53389;SDS011;39288;42.970;1.524;2022-12-18T05:37:54;2.20;;;1.57;;
53389;SDS011;39288;42.970;1.524;2022-12-18T05:38:55;8.97;;;1.70;;
53389;SDS011;39288;42.970;1.524;2022-12-18T05:39:55;5.87;;;2.00;;
53389;SDS011;39288;42.970;1.524;2022-12-18T05:40:56;3.77;;;1.73;;
53389;SDS011;39288;42.970;1.524;2022-12-18T05:41:57;3.25;;;1.73;;
53389;SDS011;39288;42.970;1.524;2022-12-18T05:42:58;4.53;;;2.33;;
53389;SDS011;39288;42.970;1.524;2022-12-18T05:43:58;3.80;;;1.20;;
53389;SDS011;39288;42.970;1.524;2022-12-18T05:44:59;2.90;;;1.70;;
53389;SDS011;39288;42.970;1.524;2022-12-18T05:46:03;4.17;;;1.63;;
53389;SDS011;39288;42.970;1.524;2022-12-18T05:47:05;2.25;;;1.35;;
53389;SDS011;39288;42.970;1.524;2022-12-18T05:48:05;2.70;;;1.70;;
53389;SDS011;39288;42.970;1.524;2022-12-18T05:49:06;3.08;;;1.75;;
53389;SDS011;39288;42.970;1.524;2022-12-18T05:50:07;2.63;;;1.47;;
53389;SDS011;39288;42.970;1.524;2022-12-18T05:51:12;3.83;;;1.80;;
53389;SDS011;39288;42.970;1.524;2022-12-18T05:52:14;3.22;;;1.80;;
53389;SDS011;39288;42.970;1.524;2022-12-18T05:53:15;2.23;;;1.30;;
53389;SDS011;39288;42.970;1.524;2022-12-18T05:54:17;4.45;;;1.58;;
53389;SDS011;39288;42.970;1.524;2022-12-18T05:55:17;5.47;;;1.60;;
53389;SDS011;39288;42.970;1.524;2022-12-18T05:56:19;5.67;;;1.60;;
53389;SDS011;39288;42.970;1.524;2022-12-18T05:57:20;2.45;;;1.40;;
53389;SDS011;39288;42.970;1.524;2022-12-18T05:58:20;1.73;;;1.30;;
53389;SDS011;39288;42.970;1.524;2022-12-18T05:59:21;3.20;;;1.40;;
53389;SDS011;39288;42.970;1.524;2022-12-18T06:00:21;4.07;;;1.60;;
53389;SDS011;39288;42.970;1.524;2022-12-18T06:01:23;4.10;;;1.57;;
53389;SDS011;39288;42.970;1.524;2022-12-18T06:02:26;3.80;;;1.63;;
53389;SDS011;39288;42.970;1.524;2022-12-18T06:03:26;2.10;;;1.30;;
53389;SDS011;39288;42.970;1.524;2022-12-18T06:04:27;2.33;;;1.37;;
53389;SDS011;39288;42.970;1.524;2022-12-18T06:05:28;3.35;;;1.27;;
53389;SDS011;39288;42.970;1.524;2022-12-18T06:06:29;4.77;;;1.17;;
53389;SDS011;39288;42.970;1.524;2022-12-18T06:07:29;2.43;;;1.47;;
53389;SDS011;39288;42.970;1.524;2022-12-18T06:08:30;3.23;;;1.90;;
53389;SDS011;39288;42.970;1.524;2022-12-18T06:09:30;2.50;;;1.30;;
53389;SDS011;39288;42.970;1.524;2022-12-18T06:10:32;3.75;;;1.55;;
53389;SDS011;39288;42.970;1.524;2022-12-18T06:11:32;4.17;;;2.27;;
53389;SDS011;39288;42.970;1.524;2022-12-18T06:12:33;2.43;;;1.40;;
53389;SDS011;39288;42.970;1.524;2022-12-18T06:13:33;3.17;;;1.80;;
53389;SDS011;39288;42.970;1.524;2022-12-18T06:14:34;4.23;;;1.57;;
53389;SDS011;39288;42.970;1.524;2022-12-18T06:15:37;4.43;;;1.90;;
53389;SDS011;39288;42.970;1.524;2022-12-18T06:16:38;3.60;;;1.92;;
53389;SDS011;39288;42.970;1.524;2022-12-18T06:17:38;3.50;;;1.93;;
53389;SDS011;39288;42.970;1.524;2022-12-18T06:19:40;2.50;;;1.67;;
53389;SDS011;39288;42.970;1.524;2022-12-18T06:20:41;3.17;;;1.97;;
53389;SDS011;39288;42.970;1.524;2022-12-18T06:21:41;3.00;;;1.57;;
53389;SDS011;39288;42.970;1.524;2022-12-18T06:22:42;3.87;;;2.60;;
53389;SDS011;39288;42.970;1.524;2022-12-18T06:23:42;3.80;;;2.13;;
53389;SDS011;39288;42.970;1.524;2022-12-18T06:24:43;6.90;;;2.17;;
53389;SDS011;39288;42.970;1.524;2022-12-18T06:25:44;3.40;;;2.03;;
53389;SDS011;39288;42.970;1.524;2022-12-18T06:26:44;4.03;;;2.20;;
53389;SDS011;39288;42.970;1.524;2022-12-18T06:27:46;6.73;;;4.53;;
53389;SDS011;39288;42.970;1.524;2022-12-18T06:28:47;3.63;;;2.22;;
53389;SDS011;39288;42.970;1.524;2022-12-18T06:29:48;13.93;;;9.53;;
53389;SDS011;39288;42.970;1.524;2022-12-18T06:30:48;20.73;;;15.43;;
53389;SDS011;39288;42.970;1.524;2022-12-18T06:31:49;28.20;;;20.80;;
53389;SDS011;39288;42.970;1.524;2022-12-18T06:32:50;10.67;;;8.17;;
53389;SDS011;39288;42.970;1.524;2022-12-18T06:33:50;7.93;;;7.13;;
53389;SDS011;39288;42.970;1.524;2022-12-18T06:34:51;6.07;;;5.37;;
53389;SDS011;39288;42.970;1.524;2022-12-18T06:35:51;9.20;;;7.60;;
53389;SDS011;39288;42.970;1.524;2022-12-18T06:36:52;12.17;;;7.77;;
53389;SDS011;39288;42.970;1.524;2022-12-18T06:37:52;11.03;;;8.73;;
53389;SDS011;39288;42.970;1.524;2022-12-18T06:38:53;9.60;;;8.70;;
53389;SDS011;39288;42.970;1.524;2022-12-18T06:39:53;7.03;;;6.23;;
53389;SDS011;39288;42.970;1.524;2022-12-18T06:40:54;8.50;;;6.53;;
53389;SDS011;39288;42.970;1.524;2022-12-18T06:41:54;7.43;;;4.40;;
53389;SDS011;39288;42.970;1.524;2022-12-18T06:42:55;8.97;;;2.50;;
53389;SDS011;39288;42.970;1.524;2022-12-18T06:43:55;4.10;;;3.70;;
53389;SDS011;39288;42.970;1.524;2022-12-18T06:44:57;18.83;;;16.42;;
53389;SDS011;39288;42.970;1.524;2022-12-18T06:45:59;7.47;;;6.77;;